sensor_id;sensor_type;location;lat;lon;timestamp;P1;durP1;ratioP1;P2;durP2;ratioP2
22543;SDS011;11438;52.044;8.716;2022-07-29T00:00:36;1.77;;;0.63;;
22543;SDS011;11438;52.044;8.716;2022-07-29T00:03:02;3.47;;;0.70;;
22543;SDS011;11438;52.044;8.716;2022-07-29T00:05:28;3.42;;;0.70;;
22543;SDS011;11438;52.044;8.716;2022-07-29T00:07:54;2.97;;;0.82;;
22543;SDS011;11438;52.044;8.716;2022-07-29T00:10:19;1.08;;;0.70;;
22543;SDS011;11438;52.044;8.716;2022-07-29T00:12:45;1.02;;;0.70;;
22543;SDS011;11438;52.044;8.716;2022-07-29T00:15:11;2.90;;;0.77;;
22543;SDS011;11438;52.044;8.716;2022-07-29T00:17:37;1.33;;;0.60;;
22543;SDS011;11438;52.044;8.716;2022-07-29T00:20:03;1.92;;;0.68;;
22543;SDS011;11438;52.044;8.716;2022-07-29T00:22:29;1.73;;;0.63;;
22543;SDS011;11438;52.044;8.716;2022-07-29T00:24:54;1.95;;;0.75;;
22543;SDS011;11438;52.044;8.716;2022-07-29T00:27:20;1.73;;;0.75;;
22543;SDS011;11438;52.044;8.716;2022-07-29T00:29:46;1.90;;;0.50;;
22543;SDS011;11438;52.044;8.716;2022-07-29T00:32:12;4.15;;;0.90;;
22543;SDS011;11438;52.044;8.716;2022-07-29T00:34:38;2.10;;;0.60;;
22543;SDS011;11438;52.044;8.716;2022-07-29T00:37:22;2.10;;;0.52;;
22543;SDS011;11438;52.044;8.716;2022-07-29T00:39:47;3.10;;;0.70;;
22543;SDS011;11438;52.044;8.716;2022-07-29T00:42:13;2.35;;;0.63;;
22543;SDS011;11438;52.044;8.716;2022-07-29T00:44:39;2.80;;;0.70;;
22543;SDS011;11438;52.044;8.716;2022-07-29T00:47:06;2.63;;;0.70;;
22543;SDS011;11438;52.044;8.716;2022-07-29T00:49:32;3.72;;;0.93;;
22543;SDS011;11438;52.044;8.716;2022-07-29T00:52:00;1.92;;;0.60;;
22543;SDS011;11438;52.044;8.716;2022-07-29T00:54:27;3.50;;;0.65;;
22543;SDS011;11438;52.044;8.716;2022-07-29T00:56:53;1.40;;;0.55;;
22543;SDS011;11438;52.044;8.716;2022-07-29T00:59:21;3.00;;;0.80;;
22543;SDS011;11438;52.044;8.716;2022-07-29T01:01:46;1.60;;;0.70;;
22543;SDS011;11438;52.044;8.716;2022-07-29T01:04:12;1.75;;;0.60;;
22543;SDS011;11438;52.044;8.716;2022-07-29T01:06:37;3.65;;;0.80;;
22543;SDS011;11438;52.044;8.716;2022-07-29T01:09:03;1.45;;;0.75;;
22543;SDS011;11438;52.044;8.716;2022-07-29T01:11:29;3.92;;;0.60;;
22543;SDS011;11438;52.044;8.716;2022-07-29T01:13:54;1.77;;;0.70;;
22543;SDS011;11438;52.044;8.716;2022-07-29T01:16:22;3.90;;;0.70;;
22543;SDS011;11438;52.044;8.716;2022-07-29T01:18:58;2.47;;;0.80;;
22543;SDS011;11438;52.044;8.716;2022-07-29T01:21:40;2.15;;;0.70;;
22543;SDS011;11438;52.044;8.716;2022-07-29T01:30:05;1.95;;;0.65;;
22543;SDS011;11438;52.044;8.716;2022-07-29T01:32:33;1.52;;;0.60;;
22543;SDS011;11438;52.044;8.716;2022-07-29T01:35:03;1.73;;;0.60;;
22543;SDS011;11438;52.044;8.716;2022-07-29T01:40:03;1.20;;;0.63;;
22543;SDS011;11438;52.044;8.716;2022-07-29T01:42:43;1.77;;;0.50;;
22543;SDS011;11438;52.044;8.716;2022-07-29T01:45:17;1.60;;;0.80;;
22543;SDS011;11438;52.044;8.716;2022-07-29T01:47:47;2.85;;;0.98;;
22543;SDS011;11438;52.044;8.716;2022-07-29T01:50:21;7.50;;;0.85;;
22543;SDS011;11438;52.044;8.716;2022-07-29T01:53:03;2.47;;;0.70;;
22543;SDS011;11438;52.044;8.716;2022-07-29T01:55:32;3.35;;;0.60;;
22543;SDS011;11438;52.044;8.716;2022-07-29T01:58:01;0.85;;;0.68;;
22543;SDS011;11438;52.044;8.716;2022-07-29T02:00:29;2.72;;;0.90;;
22543;SDS011;11438;52.044;8.716;2022-07-29T02:02:56;2.03;;;0.73;;
22543;SDS011;11438;52.044;8.716;2022-07-29T02:05:25;3.60;;;0.70;;
22543;SDS011;11438;52.044;8.716;2022-07-29T02:07:53;1.83;;;0.80;;
22543;SDS011;11438;52.044;8.716;2022-07-29T02:10:21;2.90;;;0.68;;
22543;SDS011;11438;52.044;8.716;2022-07-29T02:12:50;0.68;;;0.50;;
22543;SDS011;11438;52.044;8.716;2022-07-29T02:15:15;2.30;;;0.50;;
22543;SDS011;11438;52.044;8.716;2022-07-29T02:17:50;3.22;;;0.82;;
22543;SDS011;11438;52.044;8.716;2022-07-29T02:20:20;2.97;;;0.60;;
22543;SDS011;11438;52.044;8.716;2022-07-29T02:22:48;4.05;;;0.80;;
22543;SDS011;11438;52.044;8.716;2022-07-29T02:25:16;2.58;;;0.68;;
22543;SDS011;11438;52.044;8.716;2022-07-29T02:27:43;1.63;;;0.65;;
22543;SDS011;11438;52.044;8.716;2022-07-29T02:30:10;3.92;;;0.80;;
22543;SDS011;11438;52.044;8.716;2022-07-29T02:32:37;1.23;;;0.50;;
22543;SDS011;11438;52.044;8.716;2022-07-29T02:35:06;2.72;;;1.10;;
22543;SDS011;11438;52.044;8.716;2022-07-29T02:37:33;2.30;;;0.70;;
22543;SDS011;11438;52.044;8.716;2022-07-29T02:40:01;1.80;;;0.82;;
22543;SDS011;11438;52.044;8.716;2022-07-29T02:42:27;2.22;;;0.50;;
22543;SDS011;11438;52.044;8.716;2022-07-29T02:44:53;2.38;;;0.80;;
22543;SDS011;11438;52.044;8.716;2022-07-29T02:47:24;5.85;;;0.80;;
22543;SDS011;11438;52.044;8.716;2022-07-29T02:50:06;1.58;;;0.63;;
22543;SDS011;11438;52.044;8.716;2022-07-29T02:52:41;1.00;;;0.70;;
22543;SDS011;11438;52.044;8.716;2022-07-29T02:55:25;1.55;;;0.70;;
22543;SDS011;11438;52.044;8.716;2022-07-29T02:58:02;4.88;;;0.95;;
22543;SDS011;11438;52.044;8.716;2022-07-29T03:00:36;2.08;;;0.63;;
22543;SDS011;11438;52.044;8.716;2022-07-29T03:03:03;1.88;;;0.63;;
22543;SDS011;11438;52.044;8.716;2022-07-29T03:05:31;1.33;;;0.60;;
22543;SDS011;11438;52.044;8.716;2022-07-29T03:07:58;2.78;;;0.70;;
22543;SDS011;11438;52.044;8.716;2022-07-29T03:10:27;5.53;;;0.75;;
22543;SDS011;11438;52.044;8.716;2022-07-29T03:12:54;3.83;;;0.73;;
22543;SDS011;11438;52.044;8.716;2022-07-29T03:15:21;1.15;;;0.60;;
22543;SDS011;11438;52.044;8.716;2022-07-29T03:17:47;2.03;;;0.57;;
22543;SDS011;11438;52.044;8.716;2022-07-29T03:20:14;3.60;;;1.00;;
22543;SDS011;11438;52.044;8.716;2022-07-29T03:22:41;1.50;;;0.68;;
22543;SDS011;11438;52.044;8.716;2022-07-29T03:25:09;2.40;;;0.80;;
22543;SDS011;11438;52.044;8.716;2022-07-29T03:27:36;1.83;;;0.63;;
22543;SDS011;11438;52.044;8.716;2022-07-29T03:30:02;4.10;;;0.70;;
22543;SDS011;11438;52.044;8.716;2022-07-29T03:32:28;3.05;;;0.80;;
22543;SDS011;11438;52.044;8.716;2022-07-29T03:34:53;1.40;;;0.70;;
22543;SDS011;11438;52.044;8.716;2022-07-29T03:37:19;2.50;;;0.70;;
22543;SDS011;11438;52.044;8.716;2022-07-29T03:39:44;2.33;;;0.85;;
22543;SDS011;11438;52.044;8.716;2022-07-29T03:42:12;2.22;;;0.70;;
22543;SDS011;11438;52.044;8.716;2022-07-29T03:44:40;3.47;;;0.85;;
22543;SDS011;11438;52.044;8.716;2022-07-29T03:47:07;1.70;;;0.68;;
22543;SDS011;11438;52.044;8.716;2022-07-29T03:49:35;3.78;;;0.70;;
22543;SDS011;11438;52.044;8.716;2022-07-29T03:52:03;1.92;;;0.60;;
22543;SDS011;11438;52.044;8.716;2022-07-29T03:54:29;2.08;;;0.73;;
22543;SDS011;11438;52.044;8.716;2022-07-29T03:56:55;2.97;;;0.90;;
22543;SDS011;11438;52.044;8.716;2022-07-29T03:59:24;2.58;;;0.90;;
22543;SDS011;11438;52.044;8.716;2022-07-29T04:01:50;2.42;;;1.33;;
22543;SDS011;11438;52.044;8.716;2022-07-29T04:04:16;2.42;;;0.75;;
22543;SDS011;11438;52.044;8.716;2022-07-29T04:06:45;2.13;;;0.80;;
22543;SDS011;11438;52.044;8.716;2022-07-29T04:09:11;2.22;;;0.80;;
22543;SDS011;11438;52.044;8.716;2022-07-29T04:11:40;2.33;;;0.90;;
22543;SDS011;11438;52.044;8.716;2022-07-29T04:14:06;1.77;;;0.82;;
22543;SDS011;11438;52.044;8.716;2022-07-29T04:16:32;2.15;;;0.85;;
22543;SDS011;11438;52.044;8.716;2022-07-29T04:18:57;2.75;;;0.80;;
22543;SDS011;11438;52.044;8.716;2022-07-29T04:21:23;2.60;;;0.82;;
22543;SDS011;11438;52.044;8.716;2022-07-29T04:23:49;5.47;;;1.08;;
22543;SDS011;11438;52.044;8.716;2022-07-29T04:26:18;2.13;;;0.90;;
22543;SDS011;11438;52.044;8.716;2022-07-29T04:28:45;2.47;;;1.00;;
22543;SDS011;11438;52.044;8.716;2022-07-29T04:31:11;2.78;;;0.80;;
22543;SDS011;11438;52.044;8.716;2022-07-29T04:33:37;1.23;;;0.70;;
22543;SDS011;11438;52.044;8.716;2022-07-29T04:36:04;2.63;;;0.95;;
22543;SDS011;11438;52.044;8.716;2022-07-29T04:38:30;1.63;;;0.80;;
22543;SDS011;11438;52.044;8.716;2022-07-29T04:40:55;3.63;;;0.80;;
22543;SDS011;11438;52.044;8.716;2022-07-29T04:43:21;1.88;;;0.70;;
22543;SDS011;11438;52.044;8.716;2022-07-29T04:45:46;1.55;;;0.60;;
22543;SDS011;11438;52.044;8.716;2022-07-29T04:48:12;2.72;;;0.52;;
22543;SDS011;11438;52.044;8.716;2022-07-29T04:50:38;2.17;;;0.70;;
22543;SDS011;11438;52.044;8.716;2022-07-29T04:53:04;2.25;;;0.93;;
22543;SDS011;11438;52.044;8.716;2022-07-29T04:55:30;1.70;;;0.80;;
22543;SDS011;11438;52.044;8.716;2022-07-29T04:57:56;3.60;;;1.10;;
22543;SDS011;11438;52.044;8.716;2022-07-29T05:00:21;4.80;;;0.65;;
22543;SDS011;11438;52.044;8.716;2022-07-29T05:02:48;1.50;;;0.68;;
22543;SDS011;11438;52.044;8.716;2022-07-29T05:05:13;3.15;;;0.95;;
22543;SDS011;11438;52.044;8.716;2022-07-29T05:07:39;3.47;;;1.20;;
22543;SDS011;11438;52.044;8.716;2022-07-29T05:10:05;6.43;;;1.13;;
22543;SDS011;11438;52.044;8.716;2022-07-29T05:12:30;1.63;;;0.77;;
22543;SDS011;11438;52.044;8.716;2022-07-29T05:14:56;1.20;;;0.47;;
22543;SDS011;11438;52.044;8.716;2022-07-29T05:17:21;3.22;;;0.82;;
22543;SDS011;11438;52.044;8.716;2022-07-29T05:19:47;3.05;;;0.60;;
22543;SDS011;11438;52.044;8.716;2022-07-29T05:22:12;3.97;;;0.75;;
22543;SDS011;11438;52.044;8.716;2022-07-29T05:24:38;2.17;;;0.70;;
22543;SDS011;11438;52.044;8.716;2022-07-29T05:27:03;4.97;;;0.63;;
22543;SDS011;11438;52.044;8.716;2022-07-29T05:29:29;1.33;;;0.60;;
22543;SDS011;11438;52.044;8.716;2022-07-29T05:31:54;1.33;;;0.70;;
22543;SDS011;11438;52.044;8.716;2022-07-29T05:34:20;2.20;;;0.70;;
22543;SDS011;11438;52.044;8.716;2022-07-29T05:36:45;3.65;;;0.75;;
22543;SDS011;11438;52.044;8.716;2022-07-29T05:39:11;5.45;;;0.85;;
22543;SDS011;11438;52.044;8.716;2022-07-29T05:41:37;3.22;;;0.82;;
22543;SDS011;11438;52.044;8.716;2022-07-29T05:44:03;2.72;;;0.70;;
22543;SDS011;11438;52.044;8.716;2022-07-29T05:46:29;2.90;;;0.68;;
22543;SDS011;11438;52.044;8.716;2022-07-29T05:48:54;2.47;;;0.60;;
22543;SDS011;11438;52.044;8.716;2022-07-29T05:51:20;3.03;;;0.93;;
22543;SDS011;11438;52.044;8.716;2022-07-29T05:53:45;1.55;;;0.80;;
22543;SDS011;11438;52.044;8.716;2022-07-29T05:56:11;2.15;;;0.70;;
22543;SDS011;11438;52.044;8.716;2022-07-29T05:58:36;1.20;;;0.80;;
22543;SDS011;11438;52.044;8.716;2022-07-29T06:01:02;4.03;;;0.93;;
22543;SDS011;11438;52.044;8.716;2022-07-29T06:03:27;2.30;;;0.95;;
22543;SDS011;11438;52.044;8.716;2022-07-29T06:05:53;1.40;;;0.85;;
22543;SDS011;11438;52.044;8.716;2022-07-29T06:08:19;3.20;;;0.90;;
22543;SDS011;11438;52.044;8.716;2022-07-29T06:10:44;2.15;;;0.70;;
22543;SDS011;11438;52.044;8.716;2022-07-29T06:13:10;2.70;;;0.70;;
22543;SDS011;11438;52.044;8.716;2022-07-29T06:15:36;4.38;;;0.93;;
22543;SDS011;11438;52.044;8.716;2022-07-29T06:18:02;2.47;;;0.50;;
22543;SDS011;11438;52.044;8.716;2022-07-29T06:20:28;2.25;;;0.82;;
22543;SDS011;11438;52.044;8.716;2022-07-29T06:22:55;1.92;;;0.90;;
22543;SDS011;11438;52.044;8.716;2022-07-29T06:25:21;2.17;;;0.80;;
22543;SDS011;11438;52.044;8.716;2022-07-29T06:27:46;2.70;;;0.90;;
22543;SDS011;11438;52.044;8.716;2022-07-29T06:30:12;3.63;;;0.85;;
22543;SDS011;11438;52.044;8.716;2022-07-29T06:32:38;2.50;;;0.85;;
22543;SDS011;11438;52.044;8.716;2022-07-29T06:35:03;3.22;;;0.98;;
22543;SDS011;11438;52.044;8.716;2022-07-29T06:37:29;2.85;;;0.90;;
22543;SDS011;11438;52.044;8.716;2022-07-29T06:39:55;2.80;;;0.90;;
22543;SDS011;11438;52.044;8.716;2022-07-29T06:42:42;1.98;;;0.77;;
22543;SDS011;11438;52.044;8.716;2022-07-29T06:45:08;3.55;;;0.88;;
22543;SDS011;11438;52.044;8.716;2022-07-29T06:47:35;6.20;;;1.02;;
22543;SDS011;11438;52.044;8.716;2022-07-29T06:50:00;2.00;;;0.80;;
22543;SDS011;11438;52.044;8.716;2022-07-29T06:52:25;7.50;;;1.45;;
22543;SDS011;11438;52.044;8.716;2022-07-29T06:54:51;2.97;;;0.80;;
22543;SDS011;11438;52.044;8.716;2022-07-29T06:57:16;2.10;;;0.80;;
22543;SDS011;11438;52.044;8.716;2022-07-29T06:59:42;1.42;;;0.60;;
22543;SDS011;11438;52.044;8.716;2022-07-29T07:02:07;2.97;;;0.93;;
22543;SDS011;11438;52.044;8.716;2022-07-29T07:04:33;4.95;;;1.00;;
22543;SDS011;11438;52.044;8.716;2022-07-29T07:06:58;3.53;;;0.93;;
22543;SDS011;11438;52.044;8.716;2022-07-29T07:09:24;1.55;;;0.77;;
22543;SDS011;11438;52.044;8.716;2022-07-29T07:11:50;5.75;;;0.80;;
22543;SDS011;11438;52.044;8.716;2022-07-29T07:14:15;3.38;;;0.90;;
22543;SDS011;11438;52.044;8.716;2022-07-29T07:16:41;2.00;;;0.70;;
22543;SDS011;11438;52.044;8.716;2022-07-29T07:19:06;3.70;;;0.85;;
22543;SDS011;11438;52.044;8.716;2022-07-29T07:21:32;1.75;;;0.80;;
22543;SDS011;11438;52.044;8.716;2022-07-29T07:23:59;3.85;;;1.00;;
22543;SDS011;11438;52.044;8.716;2022-07-29T07:26:24;3.15;;;0.88;;
22543;SDS011;11438;52.044;8.716;2022-07-29T07:28:50;3.10;;;0.90;;
22543;SDS011;11438;52.044;8.716;2022-07-29T07:31:16;5.90;;;1.25;;
22543;SDS011;11438;52.044;8.716;2022-07-29T07:33:41;4.28;;;0.95;;
22543;SDS011;11438;52.044;8.716;2022-07-29T07:36:07;2.55;;;0.90;;
22543;SDS011;11438;52.044;8.716;2022-07-29T07:38:33;3.72;;;0.88;;
22543;SDS011;11438;52.044;8.716;2022-07-29T07:40:58;2.55;;;0.88;;
22543;SDS011;11438;52.044;8.716;2022-07-29T07:43:24;2.45;;;0.93;;
22543;SDS011;11438;52.044;8.716;2022-07-29T07:45:50;1.73;;;0.85;;
22543;SDS011;11438;52.044;8.716;2022-07-29T07:48:15;2.90;;;0.77;;
22543;SDS011;11438;52.044;8.716;2022-07-29T07:50:41;2.83;;;1.00;;
22543;SDS011;11438;52.044;8.716;2022-07-29T07:53:07;2.35;;;0.80;;
22543;SDS011;11438;52.044;8.716;2022-07-29T07:55:32;1.58;;;0.70;;
22543;SDS011;11438;52.044;8.716;2022-07-29T07:57:58;1.02;;;0.70;;
22543;SDS011;11438;52.044;8.716;2022-07-29T08:00:23;1.55;;;0.75;;
22543;SDS011;11438;52.044;8.716;2022-07-29T08:02:49;3.42;;;0.80;;
22543;SDS011;11438;52.044;8.716;2022-07-29T08:05:15;2.10;;;0.68;;
22543;SDS011;11438;52.044;8.716;2022-07-29T08:07:42;3.92;;;0.95;;
22543;SDS011;11438;52.044;8.716;2022-07-29T08:10:09;3.40;;;0.82;;
22543;SDS011;11438;52.044;8.716;2022-07-29T08:12:35;3.00;;;0.88;;
22543;SDS011;11438;52.044;8.716;2022-07-29T08:15:00;1.73;;;0.80;;
22543;SDS011;11438;52.044;8.716;2022-07-29T08:17:26;1.50;;;0.70;;
22543;SDS011;11438;52.044;8.716;2022-07-29T08:19:51;2.65;;;0.90;;
22543;SDS011;11438;52.044;8.716;2022-07-29T08:22:17;2.03;;;0.93;;
22543;SDS011;11438;52.044;8.716;2022-07-29T08:24:43;2.25;;;0.90;;
22543;SDS011;11438;52.044;8.716;2022-07-29T08:27:09;2.13;;;0.73;;
22543;SDS011;11438;52.044;8.716;2022-07-29T08:29:35;3.25;;;1.00;;
22543;SDS011;11438;52.044;8.716;2022-07-29T08:32:01;1.80;;;0.73;;
22543;SDS011;11438;52.044;8.716;2022-07-29T08:34:28;5.00;;;1.10;;
22543;SDS011;11438;52.044;8.716;2022-07-29T08:36:54;1.83;;;0.73;;
22543;SDS011;11438;52.044;8.716;2022-07-29T08:39:20;2.63;;;0.75;;
22543;SDS011;11438;52.044;8.716;2022-07-29T08:41:46;1.67;;;0.70;;
22543;SDS011;11438;52.044;8.716;2022-07-29T08:44:12;1.77;;;0.65;;
22543;SDS011;11438;52.044;8.716;2022-07-29T08:46:40;2.40;;;0.82;;
22543;SDS011;11438;52.044;8.716;2022-07-29T08:49:05;2.65;;;0.77;;
22543;SDS011;11438;52.044;8.716;2022-07-29T08:51:31;2.33;;;0.75;;
22543;SDS011;11438;52.044;8.716;2022-07-29T08:54:01;3.03;;;0.75;;
22543;SDS011;11438;52.044;8.716;2022-07-29T08:56:27;2.55;;;0.90;;
22543;SDS011;11438;52.044;8.716;2022-07-29T08:58:53;1.38;;;0.70;;
22543;SDS011;11438;52.044;8.716;2022-07-29T09:01:23;2.10;;;0.60;;
22543;SDS011;11438;52.044;8.716;2022-07-29T09:03:50;1.40;;;0.80;;
22543;SDS011;11438;52.044;8.716;2022-07-29T09:06:20;2.55;;;0.80;;
22543;SDS011;11438;52.044;8.716;2022-07-29T09:08:47;2.25;;;0.90;;
22543;SDS011;11438;52.044;8.716;2022-07-29T09:11:13;3.00;;;0.70;;
22543;SDS011;11438;52.044;8.716;2022-07-29T09:13:39;2.35;;;0.70;;
22543;SDS011;11438;52.044;8.716;2022-07-29T09:16:04;2.28;;;0.60;;
22543;SDS011;11438;52.044;8.716;2022-07-29T09:21:00;1.77;;;0.70;;
22543;SDS011;11438;52.044;8.716;2022-07-29T09:26:29;3.50;;;0.88;;
22543;SDS011;11438;52.044;8.716;2022-07-29T09:28:56;2.90;;;0.90;;
22543;SDS011;11438;52.044;8.716;2022-07-29T09:31:31;3.78;;;1.00;;
22543;SDS011;11438;52.044;8.716;2022-07-29T09:34:02;2.30;;;0.73;;
22543;SDS011;11438;52.044;8.716;2022-07-29T09:36:28;3.47;;;0.90;;
22543;SDS011;11438;52.044;8.716;2022-07-29T09:38:58;2.38;;;0.88;;
22543;SDS011;11438;52.044;8.716;2022-07-29T09:41:24;3.30;;;0.88;;
22543;SDS011;11438;52.044;8.716;2022-07-29T09:43:57;2.35;;;0.70;;
22543;SDS011;11438;52.044;8.716;2022-07-29T09:46:24;2.92;;;0.98;;
22543;SDS011;11438;52.044;8.716;2022-07-29T09:49:09;3.45;;;1.00;;
22543;SDS011;11438;52.044;8.716;2022-07-29T09:51:36;3.80;;;0.93;;
22543;SDS011;11438;52.044;8.716;2022-07-29T09:54:02;2.65;;;0.95;;
22543;SDS011;11438;52.044;8.716;2022-07-29T09:56:47;2.50;;;0.93;;
22543;SDS011;11438;52.044;8.716;2022-07-29T09:59:13;2.40;;;1.00;;
22543;SDS011;11438;52.044;8.716;2022-07-29T10:01:38;5.75;;;1.10;;
22543;SDS011;11438;52.044;8.716;2022-07-29T10:04:04;6.75;;;1.27;;
22543;SDS011;11438;52.044;8.716;2022-07-29T10:06:30;2.40;;;1.23;;
22543;SDS011;11438;52.044;8.716;2022-07-29T10:09:06;2.75;;;1.30;;
22543;SDS011;11438;52.044;8.716;2022-07-29T10:11:33;3.88;;;1.38;;
22543;SDS011;11438;52.044;8.716;2022-07-29T10:13:59;3.72;;;1.40;;
22543;SDS011;11438;52.044;8.716;2022-07-29T10:16:27;4.13;;;1.40;;
22543;SDS011;11438;52.044;8.716;2022-07-29T10:18:57;5.50;;;1.60;;
22543;SDS011;11438;52.044;8.716;2022-07-29T10:21:23;3.65;;;1.90;;
22543;SDS011;11438;52.044;8.716;2022-07-29T10:23:50;4.85;;;1.80;;
22543;SDS011;11438;52.044;8.716;2022-07-29T10:26:17;3.65;;;1.63;;
22543;SDS011;11438;52.044;8.716;2022-07-29T10:28:44;3.38;;;1.50;;
22543;SDS011;11438;52.044;8.716;2022-07-29T10:36:53;3.28;;;1.52;;
22543;SDS011;11438;52.044;8.716;2022-07-29T10:39:40;2.67;;;1.48;;
22543;SDS011;11438;52.044;8.716;2022-07-29T10:42:50;3.55;;;1.30;;
22543;SDS011;11438;52.044;8.716;2022-07-29T10:45:18;6.85;;;1.77;;
22543;SDS011;11438;52.044;8.716;2022-07-29T10:47:44;4.90;;;1.70;;
22543;SDS011;11438;52.044;8.716;2022-07-29T10:50:10;2.65;;;1.38;;
22543;SDS011;11438;52.044;8.716;2022-07-29T10:55:34;3.50;;;1.27;;
22543;SDS011;11438;52.044;8.716;2022-07-29T10:58:22;5.13;;;1.40;;
22543;SDS011;11438;52.044;8.716;2022-07-29T11:00:49;3.30;;;1.33;;
22543;SDS011;11438;52.044;8.716;2022-07-29T11:06:07;3.90;;;1.40;;
22543;SDS011;11438;52.044;8.716;2022-07-29T11:08:32;3.95;;;1.58;;
22543;SDS011;11438;52.044;8.716;2022-07-29T11:16:11;2.83;;;1.50;;
22543;SDS011;11438;52.044;8.716;2022-07-29T11:19:05;4.05;;;1.40;;
22543;SDS011;11438;52.044;8.716;2022-07-29T11:21:38;2.72;;;1.38;;
22543;SDS011;11438;52.044;8.716;2022-07-29T11:24:14;4.30;;;1.80;;
22543;SDS011;11438;52.044;8.716;2022-07-29T11:26:41;2.92;;;1.67;;
22543;SDS011;11438;52.044;8.716;2022-07-29T11:29:19;3.88;;;1.40;;
22543;SDS011;11438;52.044;8.716;2022-07-29T11:31:47;5.97;;;1.55;;
22543;SDS011;11438;52.044;8.716;2022-07-29T11:39:39;4.00;;;1.52;;
22543;SDS011;11438;52.044;8.716;2022-07-29T11:44:56;2.88;;;1.77;;
22543;SDS011;11438;52.044;8.716;2022-07-29T11:47:26;3.38;;;1.85;;
22543;SDS011;11438;52.044;8.716;2022-07-29T11:49:54;3.42;;;1.60;;
22543;SDS011;11438;52.044;8.716;2022-07-29T11:52:24;3.35;;;1.42;;
22543;SDS011;11438;52.044;8.716;2022-07-29T11:55:08;2.88;;;1.52;;
22543;SDS011;11438;52.044;8.716;2022-07-29T11:57:37;2.63;;;1.60;;
22543;SDS011;11438;52.044;8.716;2022-07-29T12:03:01;4.40;;;1.70;;
22543;SDS011;11438;52.044;8.716;2022-07-29T12:05:36;4.10;;;1.67;;
22543;SDS011;11438;52.044;8.716;2022-07-29T12:08:05;6.68;;;2.03;;
22543;SDS011;11438;52.044;8.716;2022-07-29T12:10:39;3.78;;;1.58;;
22543;SDS011;11438;52.044;8.716;2022-07-29T12:13:05;4.75;;;1.88;;
22543;SDS011;11438;52.044;8.716;2022-07-29T12:15:31;6.45;;;1.90;;
22543;SDS011;11438;52.044;8.716;2022-07-29T12:17:57;3.60;;;2.00;;
22543;SDS011;11438;52.044;8.716;2022-07-29T12:20:27;3.92;;;2.13;;
22543;SDS011;11438;52.044;8.716;2022-07-29T12:22:54;3.42;;;2.03;;
22543;SDS011;11438;52.044;8.716;2022-07-29T12:25:21;4.25;;;1.88;;
22543;SDS011;11438;52.044;8.716;2022-07-29T12:27:57;6.63;;;2.22;;
22543;SDS011;11438;52.044;8.716;2022-07-29T12:30:24;4.13;;;1.40;;
22543;SDS011;11438;52.044;8.716;2022-07-29T12:33:11;4.40;;;1.83;;
22543;SDS011;11438;52.044;8.716;2022-07-29T12:35:37;5.57;;;1.55;;
22543;SDS011;11438;52.044;8.716;2022-07-29T12:38:04;5.68;;;1.80;;
22543;SDS011;11438;52.044;8.716;2022-07-29T12:40:30;2.90;;;1.52;;
22543;SDS011;11438;52.044;8.716;2022-07-29T12:43:05;5.90;;;2.20;;
22543;SDS011;11438;52.044;8.716;2022-07-29T12:45:36;5.30;;;1.80;;
22543;SDS011;11438;52.044;8.716;2022-07-29T12:48:02;3.60;;;1.83;;
22543;SDS011;11438;52.044;8.716;2022-07-29T12:50:28;3.78;;;1.52;;
22543;SDS011;11438;52.044;8.716;2022-07-29T12:52:53;4.28;;;1.50;;
22543;SDS011;11438;52.044;8.716;2022-07-29T12:55:40;3.60;;;1.70;;
22543;SDS011;11438;52.044;8.716;2022-07-29T12:58:13;4.22;;;1.60;;
22543;SDS011;11438;52.044;8.716;2022-07-29T13:00:57;4.72;;;1.90;;
22543;SDS011;11438;52.044;8.716;2022-07-29T13:03:27;2.67;;;1.40;;
22543;SDS011;11438;52.044;8.716;2022-07-29T13:05:54;4.00;;;1.77;;
22543;SDS011;11438;52.044;8.716;2022-07-29T13:08:19;3.95;;;1.50;;
22543;SDS011;11438;52.044;8.716;2022-07-29T13:10:45;5.40;;;1.90;;
22543;SDS011;11438;52.044;8.716;2022-07-29T13:13:11;4.50;;;1.50;;
22543;SDS011;11438;52.044;8.716;2022-07-29T13:15:39;2.70;;;1.33;;
22543;SDS011;11438;52.044;8.716;2022-07-29T13:21:13;3.00;;;1.52;;
22543;SDS011;11438;52.044;8.716;2022-07-29T13:23:40;4.10;;;1.52;;
22543;SDS011;11438;52.044;8.716;2022-07-29T13:26:06;3.00;;;1.83;;
22543;SDS011;11438;52.044;8.716;2022-07-29T13:28:32;3.50;;;1.80;;
22543;SDS011;11438;52.044;8.716;2022-07-29T13:30:59;10.57;;;1.52;;
22543;SDS011;11438;52.044;8.716;2022-07-29T13:33:24;5.70;;;1.70;;
22543;SDS011;11438;52.044;8.716;2022-07-29T13:35:50;3.63;;;1.45;;
22543;SDS011;11438;52.044;8.716;2022-07-29T13:38:16;4.68;;;1.25;;
22543;SDS011;11438;52.044;8.716;2022-07-29T13:40:41;4.47;;;1.38;;
22543;SDS011;11438;52.044;8.716;2022-07-29T13:43:10;3.72;;;1.20;;
22543;SDS011;11438;52.044;8.716;2022-07-29T13:45:37;3.47;;;1.30;;
22543;SDS011;11438;52.044;8.716;2022-07-29T13:48:02;6.55;;;1.42;;
22543;SDS011;11438;52.044;8.716;2022-07-29T13:50:28;4.82;;;1.42;;
22543;SDS011;11438;52.044;8.716;2022-07-29T13:52:54;4.85;;;1.70;;
22543;SDS011;11438;52.044;8.716;2022-07-29T13:55:19;2.58;;;1.40;;
22543;SDS011;11438;52.044;8.716;2022-07-29T13:57:45;5.18;;;1.30;;
22543;SDS011;11438;52.044;8.716;2022-07-29T14:00:10;4.03;;;1.50;;
22543;SDS011;11438;52.044;8.716;2022-07-29T14:02:37;3.45;;;1.40;;
22543;SDS011;11438;52.044;8.716;2022-07-29T14:05:03;2.42;;;1.33;;
22543;SDS011;11438;52.044;8.716;2022-07-29T14:07:30;4.65;;;1.38;;
22543;SDS011;11438;52.044;8.716;2022-07-29T14:09:55;1.65;;;0.88;;
22543;SDS011;11438;52.044;8.716;2022-07-29T14:12:21;4.88;;;1.20;;
22543;SDS011;11438;52.044;8.716;2022-07-29T14:14:47;2.00;;;1.27;;
22543;SDS011;11438;52.044;8.716;2022-07-29T14:17:13;4.40;;;1.58;;
22543;SDS011;11438;52.044;8.716;2022-07-29T14:19:39;3.72;;;1.42;;
22543;SDS011;11438;52.044;8.716;2022-07-29T14:22:06;6.63;;;1.45;;
22543;SDS011;11438;52.044;8.716;2022-07-29T14:24:32;3.22;;;1.27;;
22543;SDS011;11438;52.044;8.716;2022-07-29T14:26:58;2.83;;;1.30;;
22543;SDS011;11438;52.044;8.716;2022-07-29T14:29:24;2.72;;;1.20;;
22543;SDS011;11438;52.044;8.716;2022-07-29T14:31:49;2.25;;;1.33;;
22543;SDS011;11438;52.044;8.716;2022-07-29T14:34:15;3.47;;;1.40;;
22543;SDS011;11438;52.044;8.716;2022-07-29T14:36:40;6.10;;;1.58;;
22543;SDS011;11438;52.044;8.716;2022-07-29T14:39:06;4.90;;;1.35;;
22543;SDS011;11438;52.044;8.716;2022-07-29T14:41:32;4.38;;;1.60;;
22543;SDS011;11438;52.044;8.716;2022-07-29T14:43:57;5.57;;;1.40;;
22543;SDS011;11438;52.044;8.716;2022-07-29T14:46:25;4.60;;;1.45;;
22543;SDS011;11438;52.044;8.716;2022-07-29T14:48:51;3.83;;;1.92;;
22543;SDS011;11438;52.044;8.716;2022-07-29T14:51:17;1.98;;;1.27;;
22543;SDS011;11438;52.044;8.716;2022-07-29T14:53:42;3.85;;;1.58;;
22543;SDS011;11438;52.044;8.716;2022-07-29T14:56:08;4.70;;;1.80;;
22543;SDS011;11438;52.044;8.716;2022-07-29T14:58:34;3.47;;;1.55;;
22543;SDS011;11438;52.044;8.716;2022-07-29T15:00:59;5.05;;;1.50;;
22543;SDS011;11438;52.044;8.716;2022-07-29T15:03:25;4.95;;;1.70;;
22543;SDS011;11438;52.044;8.716;2022-07-29T15:05:52;4.82;;;1.48;;
22543;SDS011;11438;52.044;8.716;2022-07-29T15:08:18;5.82;;;1.30;;
22543;SDS011;11438;52.044;8.716;2022-07-29T15:10:44;2.35;;;1.60;;
22543;SDS011;11438;52.044;8.716;2022-07-29T15:13:09;2.40;;;1.58;;
22543;SDS011;11438;52.044;8.716;2022-07-29T15:15:35;6.03;;;1.88;;
22543;SDS011;11438;52.044;8.716;2022-07-29T15:18:01;4.68;;;2.25;;
22543;SDS011;11438;52.044;8.716;2022-07-29T15:20:26;3.40;;;1.85;;
22543;SDS011;11438;52.044;8.716;2022-07-29T15:22:52;4.03;;;1.83;;
22543;SDS011;11438;52.044;8.716;2022-07-29T15:25:20;5.22;;;1.58;;
22543;SDS011;11438;52.044;8.716;2022-07-29T15:27:46;4.97;;;1.70;;
22543;SDS011;11438;52.044;8.716;2022-07-29T15:30:12;3.92;;;1.75;;
22543;SDS011;11438;52.044;8.716;2022-07-29T15:32:37;3.20;;;1.60;;
22543;SDS011;11438;52.044;8.716;2022-07-29T15:35:03;5.25;;;1.70;;